sensor_id;sensor_type;location;lat;lon;timestamp;temperature;humidity
11009;DHT22;5557;51.670;7.788;2023-07-30T00:00:14;16.70;99.90
11009;DHT22;5557;51.670;7.788;2023-07-30T00:02:41;16.70;99.90
11009;DHT22;5557;51.670;7.788;2023-07-30T00:05:08;16.60;99.90
11009;DHT22;5557;51.670;7.788;2023-07-30T00:07:35;16.60;99.90
11009;DHT22;5557;51.670;7.788;2023-07-30T00:10:03;16.60;99.90
11009;DHT22;5557;51.670;7.788;2023-07-30T00:12:30;16.50;99.90
11009;DHT22;5557;51.670;7.788;2023-07-30T00:14:57;16.50;99.90
11009;DHT22;5557;51.670;7.788;2023-07-30T00:17:24;16.50;99.90
11009;DHT22;5557;51.670;7.788;2023-07-30T00:19:51;16.50;99.90
11009;DHT22;5557;51.670;7.788;2023-07-30T00:22:18;16.50;99.90
11009;DHT22;5557;51.670;7.788;2023-07-30T00:24:49;16.40;99.90
11009;DHT22;5557;51.670;7.788;2023-07-30T00:27:16;16.40;99.90
11009;DHT22;5557;51.670;7.788;2023-07-30T00:29:44;16.30;99.90
11009;DHT22;5557;51.670;7.788;2023-07-30T00:32:12;16.30;99.90
11009;DHT22;5557;51.670;7.788;2023-07-30T00:34:43;16.20;99.90
11009;DHT22;5557;51.670;7.788;2023-07-30T00:37:10;16.20;99.90
11009;DHT22;5557;51.670;7.788;2023-07-30T00:39:37;16.20;99.90
11009;DHT22;5557;51.670;7.788;2023-07-30T00:42:04;16.10;99.90
11009;DHT22;5557;51.670;7.788;2023-07-30T00:44:32;16.10;99.90
11009;DHT22;5557;51.670;7.788;2023-07-30T00:46:59;16.10;99.90
11009;DHT22;5557;51.670;7.788;2023-07-30T00:49:26;16.00;99.90
11009;DHT22;5557;51.670;7.788;2023-07-30T00:51:54;16.00;99.90
11009;DHT22;5557;51.670;7.788;2023-07-30T00:54:24;15.90;99.90
11009;DHT22;5557;51.670;7.788;2023-07-30T00:56:52;15.90;99.90
11009;DHT22;5557;51.670;7.788;2023-07-30T00:59:23;15.80;99.90
11009;DHT22;5557;51.670;7.788;2023-07-30T01:01:51;15.80;99.90
11009;DHT22;5557;51.670;7.788;2023-07-30T01:04:18;15.70;99.90
11009;DHT22;5557;51.670;7.788;2023-07-30T01:06:46;15.60;99.90
11009;DHT22;5557;51.670;7.788;2023-07-30T01:09:13;15.70;99.90
11009;DHT22;5557;51.670;7.788;2023-07-30T01:11:41;15.60;99.90
11009;DHT22;5557;51.670;7.788;2023-07-30T01:14:09;15.50;99.90
11009;DHT22;5557;51.670;7.788;2023-07-30T01:16:37;15.50;99.90
11009;DHT22;5557;51.670;7.788;2023-07-30T01:19:06;15.50;99.90
11009;DHT22;5557;51.670;7.788;2023-07-30T01:21:34;15.50;99.90
11009;DHT22;5557;51.670;7.788;2023-07-30T01:24:03;15.50;99.90
11009;DHT22;5557;51.670;7.788;2023-07-30T01:26:35;15.50;99.90
11009;DHT22;5557;51.670;7.788;2023-07-30T01:29:12;15.40;99.90
11009;DHT22;5557;51.670;7.788;2023-07-30T01:31:42;15.40;99.90
11009;DHT22;5557;51.670;7.788;2023-07-30T01:34:11;15.40;99.90
11009;DHT22;5557;51.670;7.788;2023-07-30T01:36:39;15.40;99.90
11009;DHT22;5557;51.670;7.788;2023-07-30T01:39:09;15.40;99.90
11009;DHT22;5557;51.670;7.788;2023-07-30T01:41:36;15.30;99.90
11009;DHT22;5557;51.670;7.788;2023-07-30T01:44:05;15.30;99.90
11009;DHT22;5557;51.670;7.788;2023-07-30T01:46:32;15.30;99.90
11009;DHT22;5557;51.670;7.788;2023-07-30T01:48:59;15.20;99.90
11009;DHT22;5557;51.670;7.788;2023-07-30T01:51:26;15.20;99.90
11009;DHT22;5557;51.670;7.788;2023-07-30T01:53:53;15.10;99.90
11009;DHT22;5557;51.670;7.788;2023-07-30T01:56:21;15.10;99.90
11009;DHT22;5557;51.670;7.788;2023-07-30T01:58:48;15.00;99.90
11009;DHT22;5557;51.670;7.788;2023-07-30T02:01:15;15.00;99.90
11009;DHT22;5557;51.670;7.788;2023-07-30T02:03:42;15.00;99.90
11009;DHT22;5557;51.670;7.788;2023-07-30T02:06:10;15.00;99.90
11009;DHT22;5557;51.670;7.788;2023-07-30T02:08:38;14.90;99.90
11009;DHT22;5557;51.670;7.788;2023-07-30T02:11:05;14.90;99.90
11009;DHT22;5557;51.670;7.788;2023-07-30T02:13:32;14.90;99.90
11009;DHT22;5557;51.670;7.788;2023-07-30T02:16:02;14.90;99.90
11009;DHT22;5557;51.670;7.788;2023-07-30T02:18:29;14.80;99.90
11009;DHT22;5557;51.670;7.788;2023-07-30T02:20:56;14.70;99.90
11009;DHT22;5557;51.670;7.788;2023-07-30T02:23:23;14.70;99.90
11009;DHT22;5557;51.670;7.788;2023-07-30T02:25:51;14.60;99.90
11009;DHT22;5557;51.670;7.788;2023-07-30T02:28:18;14.60;99.90
11009;DHT22;5557;51.670;7.788;2023-07-30T02:30:46;14.50;99.90
11009;DHT22;5557;51.670;7.788;2023-07-30T02:33:14;14.50;99.90
11009;DHT22;5557;51.670;7.788;2023-07-30T02:35:43;14.50;99.90
11009;DHT22;5557;51.670;7.788;2023-07-30T02:38:10;14.40;99.90
11009;DHT22;5557;51.670;7.788;2023-07-30T02:40:37;14.40;99.90
11009;DHT22;5557;51.670;7.788;2023-07-30T02:43:05;14.40;99.90
11009;DHT22;5557;51.670;7.788;2023-07-30T02:45:32;14.30;99.90
11009;DHT22;5557;51.670;7.788;2023-07-30T02:47:59;14.30;99.90
11009;DHT22;5557;51.670;7.788;2023-07-30T02:50:26;14.20;99.90
11009;DHT22;5557;51.670;7.788;2023-07-30T02:52:53;14.20;99.90
11009;DHT22;5557;51.670;7.788;2023-07-30T02:55:21;14.10;99.90
11009;DHT22;5557;51.670;7.788;2023-07-30T02:57:48;14.10;99.90
11009;DHT22;5557;51.670;7.788;2023-07-30T03:00:15;14.00;99.90
11009;DHT22;5557;51.670;7.788;2023-07-30T03:02:42;14.00;99.90
11009;DHT22;5557;51.670;7.788;2023-07-30T03:05:10;14.00;99.90
11009;DHT22;5557;51.670;7.788;2023-07-30T03:07:37;14.00;99.90
11009;DHT22;5557;51.670;7.788;2023-07-30T03:10:05;14.00;99.90
11009;DHT22;5557;51.670;7.788;2023-07-30T03:12:32;14.00;99.90
11009;DHT22;5557;51.670;7.788;2023-07-30T03:14:59;14.00;99.90
11009;DHT22;5557;51.670;7.788;2023-07-30T03:17:26;14.00;99.90
11009;DHT22;5557;51.670;7.788;2023-07-30T03:19:53;13.90;99.90
11009;DHT22;5557;51.670;7.788;2023-07-30T03:22:20;13.90;99.90
11009;DHT22;5557;51.670;7.788;2023-07-30T03:24:47;13.90;99.90
11009;DHT22;5557;51.670;7.788;2023-07-30T03:27:14;13.90;99.90
11009;DHT22;5557;51.670;7.788;2023-07-30T03:29:41;13.90;99.90
11009;DHT22;5557;51.670;7.788;2023-07-30T03:32:09;13.80;99.90
11009;DHT22;5557;51.670;7.788;2023-07-30T03:34:37;13.80;99.90
11009;DHT22;5557;51.670;7.788;2023-07-30T03:37:05;13.80;99.90
11009;DHT22;5557;51.670;7.788;2023-07-30T03:39:32;13.80;99.90
11009;DHT22;5557;51.670;7.788;2023-07-30T03:41:59;13.80;99.90
11009;DHT22;5557;51.670;7.788;2023-07-30T03:44:26;13.80;99.90
11009;DHT22;5557;51.670;7.788;2023-07-30T03:46:53;13.70;99.90
11009;DHT22;5557;51.670;7.788;2023-07-30T03:49:20;13.70;99.90
11009;DHT22;5557;51.670;7.788;2023-07-30T03:51:47;13.70;99.90
11009;DHT22;5557;51.670;7.788;2023-07-30T03:54:14;13.70;99.90
11009;DHT22;5557;51.670;7.788;2023-07-30T03:56:41;13.70;99.90
11009;DHT22;5557;51.670;7.788;2023-07-30T03:59:08;13.70;99.90
11009;DHT22;5557;51.670;7.788;2023-07-30T04:01:35;13.60;99.90
11009;DHT22;5557;51.670;7.788;2023-07-30T04:04:02;13.60;99.90
11009;DHT22;5557;51.670;7.788;2023-07-30T04:06:30;13.70;99.90
11009;DHT22;5557;51.670;7.788;2023-07-30T04:08:57;13.80;99.90
11009;DHT22;5557;51.670;7.788;2023-07-30T04:11:24;13.80;99.90
11009;DHT22;5557;51.670;7.788;2023-07-30T04:13:51;14.20;99.90
11009;DHT22;5557;51.670;7.788;2023-07-30T04:16:18;14.50;99.90
11009;DHT22;5557;51.670;7.788;2023-07-30T04:18:45;14.80;99.90
11009;DHT22;5557;51.670;7.788;2023-07-30T04:21:12;15.10;99.90
11009;DHT22;5557;51.670;7.788;2023-07-30T04:23:40;15.30;99.90
11009;DHT22;5557;51.670;7.788;2023-07-30T04:26:07;15.70;99.90
11009;DHT22;5557;51.670;7.788;2023-07-30T04:28:34;16.10;99.90
11009;DHT22;5557;51.670;7.788;2023-07-30T04:31:02;16.40;97.40
11009;DHT22;5557;51.670;7.788;2023-07-30T04:33:29;16.70;91.40
11009;DHT22;5557;51.670;7.788;2023-07-30T04:35:57;17.00;76.40
11009;DHT22;5557;51.670;7.788;2023-07-30T04:38:24;17.30;62.90
11009;DHT22;5557;51.670;7.788;2023-07-30T04:40:51;17.40;53.40
11009;DHT22;5557;51.670;7.788;2023-07-30T04:43:18;17.40;61.20
11009;DHT22;5557;51.670;7.788;2023-07-30T04:45:45;17.40;54.10
11009;DHT22;5557;51.670;7.788;2023-07-30T04:48:12;17.40;58.30
11009;DHT22;5557;51.670;7.788;2023-07-30T04:50:39;17.20;54.00
11009;DHT22;5557;51.670;7.788;2023-07-30T04:53:08;17.00;60.10
11009;DHT22;5557;51.670;7.788;2023-07-30T04:55:35;17.00;61.30
11009;DHT22;5557;51.670;7.788;2023-07-30T04:58:02;17.30;69.00
11009;DHT22;5557;51.670;7.788;2023-07-30T05:00:30;18.00;44.20
11009;DHT22;5557;51.670;7.788;2023-07-30T05:02:57;18.70;26.10
11009;DHT22;5557;51.670;7.788;2023-07-30T05:05:24;19.00;23.20
11009;DHT22;5557;51.670;7.788;2023-07-30T05:07:51;19.30;18.50
11009;DHT22;5557;51.670;7.788;2023-07-30T05:10:18;19.80;14.70
11009;DHT22;5557;51.670;7.788;2023-07-30T05:12:45;20.00;11.80
11009;DHT22;5557;51.670;7.788;2023-07-30T05:15:12;19.70;13.70
11009;DHT22;5557;51.670;7.788;2023-07-30T05:17:39;19.00;17.30
11009;DHT22;5557;51.670;7.788;2023-07-30T05:20:07;18.30;28.70
11009;DHT22;5557;51.670;7.788;2023-07-30T05:22:34;18.00;37.70
11009;DHT22;5557;51.670;7.788;2023-07-30T05:25:01;18.40;33.00
11009;DHT22;5557;51.670;7.788;2023-07-30T05:27:29;19.30;24.40
11009;DHT22;5557;51.670;7.788;2023-07-30T05:29:58;20.00;14.90
11009;DHT22;5557;51.670;7.788;2023-07-30T05:32:25;20.60;4.30
11009;DHT22;5557;51.670;7.788;2023-07-30T05:34:53;21.00;3.20
11009;DHT22;5557;51.670;7.788;2023-07-30T05:37:23;21.30;1.00
11009;DHT22;5557;51.670;7.788;2023-07-30T05:39:51;21.40;1.00
11009;DHT22;5557;51.670;7.788;2023-07-30T05:42:18;21.30;1.00
11009;DHT22;5557;51.670;7.788;2023-07-30T05:44:45;21.20;1.00
11009;DHT22;5557;51.670;7.788;2023-07-30T05:47:12;21.20;1.00
11009;DHT22;5557;51.670;7.788;2023-07-30T05:49:39;21.20;1.00
11009;DHT22;5557;51.670;7.788;2023-07-30T05:52:06;21.20;1.00
11009;DHT22;5557;51.670;7.788;2023-07-30T05:54:33;21.10;1.00
11009;DHT22;5557;51.670;7.788;2023-07-30T05:57:00;20.50;4.20
11009;DHT22;5557;51.670;7.788;2023-07-30T05:59:27;19.80;12.20
11009;DHT22;5557;51.670;7.788;2023-07-30T06:01:56;19.20;16.60
11009;DHT22;5557;51.670;7.788;2023-07-30T06:04:22;18.60;24.30
11009;DHT22;5557;51.670;7.788;2023-07-30T06:06:49;18.40;27.10
11009;DHT22;5557;51.670;7.788;2023-07-30T06:09:16;18.30;34.40
11009;DHT22;5557;51.670;7.788;2023-07-30T06:11:43;18.10;33.90
11009;DHT22;5557;51.670;7.788;2023-07-30T06:14:11;18.00;37.90
11009;DHT22;5557;51.670;7.788;2023-07-30T06:16:38;17.90;37.20
11009;DHT22;5557;51.670;7.788;2023-07-30T06:19:05;17.80;45.70
11009;DHT22;5557;51.670;7.788;2023-07-30T06:21:32;17.90;43.20
11009;DHT22;5557;51.670;7.788;2023-07-30T06:23:59;17.90;43.30
11009;DHT22;5557;51.670;7.788;2023-07-30T06:26:26;17.80;42.70
11009;DHT22;5557;51.670;7.788;2023-07-30T06:28:53;17.60;47.70
11009;DHT22;5557;51.670;7.788;2023-07-30T06:31:20;17.60;48.10
11009;DHT22;5557;51.670;7.788;2023-07-30T06:33:48;17.50;47.90
11009;DHT22;5557;51.670;7.788;2023-07-30T06:36:16;17.50;52.80
11009;DHT22;5557;51.670;7.788;2023-07-30T06:38:43;17.50;53.00
11009;DHT22;5557;51.670;7.788;2023-07-30T06:41:10;17.40;52.90
11009;DHT22;5557;51.670;7.788;2023-07-30T06:43:37;17.30;58.40
11009;DHT22;5557;51.670;7.788;2023-07-30T06:46:04;17.20;58.60
11009;DHT22;5557;51.670;7.788;2023-07-30T06:48:31;17.10;61.60
11009;DHT22;5557;51.670;7.788;2023-07-30T06:50:58;17.10;62.60
11009;DHT22;5557;51.670;7.788;2023-07-30T06:53:26;17.00;64.30
11009;DHT22;5557;51.670;7.788;2023-07-30T06:55:53;17.00;66.20
11009;DHT22;5557;51.670;7.788;2023-07-30T06:58:20;17.00;66.00
11009;DHT22;5557;51.670;7.788;2023-07-30T07:00:47;17.00;64.40
11009;DHT22;5557;51.670;7.788;2023-07-30T07:03:14;16.90;64.60
11009;DHT22;5557;51.670;7.788;2023-07-30T07:05:41;16.90;65.30
11009;DHT22;5557;51.670;7.788;2023-07-30T07:08:11;16.90;68.60
11009;DHT22;5557;51.670;7.788;2023-07-30T07:10:37;16.90;70.20
11009;DHT22;5557;51.670;7.788;2023-07-30T07:13:04;16.90;70.60
11009;DHT22;5557;51.670;7.788;2023-07-30T07:15:32;16.90;71.40
11009;DHT22;5557;51.670;7.788;2023-07-30T07:17:59;16.90;72.50
11009;DHT22;5557;51.670;7.788;2023-07-30T07:20:26;16.90;70.60
11009;DHT22;5557;51.670;7.788;2023-07-30T07:22:54;16.80;72.40
11009;DHT22;5557;51.670;7.788;2023-07-30T07:25:23;16.70;71.80
11009;DHT22;5557;51.670;7.788;2023-07-30T07:27:53;16.80;72.60
11009;DHT22;5557;51.670;7.788;2023-07-30T07:30:22;16.80;71.60
11009;DHT22;5557;51.670;7.788;2023-07-30T07:32:49;16.80;72.70
11009;DHT22;5557;51.670;7.788;2023-07-30T07:35:20;16.80;72.60
11009;DHT22;5557;51.670;7.788;2023-07-30T07:37:48;16.90;73.00
11009;DHT22;5557;51.670;7.788;2023-07-30T07:40:15;16.90;74.20
11009;DHT22;5557;51.670;7.788;2023-07-30T07:42:43;16.90;75.50
11009;DHT22;5557;51.670;7.788;2023-07-30T07:45:10;17.00;74.80
11009;DHT22;5557;51.670;7.788;2023-07-30T07:47:37;17.00;74.80
11009;DHT22;5557;51.670;7.788;2023-07-30T07:50:05;17.00;74.10
11009;DHT22;5557;51.670;7.788;2023-07-30T07:52:32;17.00;74.70
11009;DHT22;5557;51.670;7.788;2023-07-30T07:55:00;17.00;75.70
11009;DHT22;5557;51.670;7.788;2023-07-30T07:57:27;17.00;78.40
11009;DHT22;5557;51.670;7.788;2023-07-30T07:59:56;16.90;77.10
11009;DHT22;5557;51.670;7.788;2023-07-30T08:02:23;16.80;79.60
11009;DHT22;5557;51.670;7.788;2023-07-30T08:04:51;16.80;85.00
11009;DHT22;5557;51.670;7.788;2023-07-30T08:07:18;16.90;83.90
11009;DHT22;5557;51.670;7.788;2023-07-30T08:09:45;17.00;79.70
11009;DHT22;5557;51.670;7.788;2023-07-30T08:12:12;17.00;75.10
11009;DHT22;5557;51.670;7.788;2023-07-30T08:14:40;16.90;75.30
11009;DHT22;5557;51.670;7.788;2023-07-30T08:17:07;16.80;75.30
11009;DHT22;5557;51.670;7.788;2023-07-30T08:19:34;16.80;77.00
11009;DHT22;5557;51.670;7.788;2023-07-30T08:22:01;16.80;78.20
11009;DHT22;5557;51.670;7.788;2023-07-30T08:24:28;16.90;76.60
11009;DHT22;5557;51.670;7.788;2023-07-30T08:26:55;17.00;76.90
11009;DHT22;5557;51.670;7.788;2023-07-30T08:29:23;17.10;72.90
11009;DHT22;5557;51.670;7.788;2023-07-30T08:31:50;17.10;70.20
11009;DHT22;5557;51.670;7.788;2023-07-30T08:34:18;17.10;69.70
11009;DHT22;5557;51.670;7.788;2023-07-30T08:36:45;17.10;67.60
11009;DHT22;5557;51.670;7.788;2023-07-30T08:39:12;17.20;68.30
11009;DHT22;5557;51.670;7.788;2023-07-30T08:41:39;17.30;66.10
11009;DHT22;5557;51.670;7.788;2023-07-30T08:44:07;17.40;60.30
11009;DHT22;5557;51.670;7.788;2023-07-30T08:46:36;17.40;57.10
11009;DHT22;5557;51.670;7.788;2023-07-30T08:49:03;17.40;58.10
11009;DHT22;5557;51.670;7.788;2023-07-30T08:51:31;17.40;53.60
11009;DHT22;5557;51.670;7.788;2023-07-30T08:54:00;17.20;56.20
11009;DHT22;5557;51.670;7.788;2023-07-30T08:56:28;17.20;58.40
11009;DHT22;5557;51.670;7.788;2023-07-30T08:58:58;17.30;60.00
11009;DHT22;5557;51.670;7.788;2023-07-30T09:01:30;17.30;56.70
11009;DHT22;5557;51.670;7.788;2023-07-30T09:04:02;17.20;57.40
11009;DHT22;5557;51.670;7.788;2023-07-30T09:06:29;17.20;58.00
11009;DHT22;5557;51.670;7.788;2023-07-30T09:08:56;17.20;59.30
11009;DHT22;5557;51.670;7.788;2023-07-30T09:11:26;17.10;59.10
11009;DHT22;5557;51.670;7.788;2023-07-30T09:13:54;17.10;62.90
11009;DHT22;5557;51.670;7.788;2023-07-30T09:16:28;17.00;64.70
11009;DHT22;5557;51.670;7.788;2023-07-30T09:18:56;17.20;63.50
11009;DHT22;5557;51.670;7.788;2023-07-30T09:21:31;17.60;59.80
11009;DHT22;5557;51.670;7.788;2023-07-30T09:23:59;18.30;44.10
11009;DHT22;5557;51.670;7.788;2023-07-30T09:26:46;19.40;28.70
11009;DHT22;5557;51.670;7.788;2023-07-30T09:29:13;20.40;11.90
11009;DHT22;5557;51.670;7.788;2023-07-30T09:31:47;21.00;9.20
11009;DHT22;5557;51.670;7.788;2023-07-30T09:34:19;21.20;3.30
11009;DHT22;5557;51.670;7.788;2023-07-30T09:36:49;21.10;1.00
11009;DHT22;5557;51.670;7.788;2023-07-30T09:39:26;21.10;1.00
11009;DHT22;5557;51.670;7.788;2023-07-30T09:42:00;20.70;1.90
11009;DHT22;5557;51.670;7.788;2023-07-30T09:44:28;20.30;5.00
11009;DHT22;5557;51.670;7.788;2023-07-30T09:46:58;19.90;9.10
11009;DHT22;5557;51.670;7.788;2023-07-30T09:49:26;19.80;9.70
11009;DHT22;5557;51.670;7.788;2023-07-30T09:51:53;20.00;10.90
11009;DHT22;5557;51.670;7.788;2023-07-30T09:54:21;20.20;8.20
11009;DHT22;5557;51.670;7.788;2023-07-30T09:56:49;20.80;1.40
11009;DHT22;5557;51.670;7.788;2023-07-30T09:59:16;21.10;1.40
11009;DHT22;5557;51.670;7.788;2023-07-30T10:01:45;21.10;1.00
11009;DHT22;5557;51.670;7.788;2023-07-30T10:04:13;21.00;1.00
11009;DHT22;5557;51.670;7.788;2023-07-30T10:07:10;20.90;1.00
11009;DHT22;5557;51.670;7.788;2023-07-30T10:09:42;20.90;1.00
11009;DHT22;5557;51.670;7.788;2023-07-30T10:12:16;20.80;1.00
11009;DHT22;5557;51.670;7.788;2023-07-30T10:14:45;20.80;1.00
11009;DHT22;5557;51.670;7.788;2023-07-30T10:17:12;21.10;1.00
11009;DHT22;5557;51.670;7.788;2023-07-30T10:19:39;21.40;1.00
11009;DHT22;5557;51.670;7.788;2023-07-30T10:22:33;21.50;1.00
11009;DHT22;5557;51.670;7.788;2023-07-30T10:25:04;21.60;1.00
11009;DHT22;5557;51.670;7.788;2023-07-30T10:27:40;22.10;1.00
11009;DHT22;5557;51.670;7.788;2023-07-30T10:30:15;22.50;1.00
11009;DHT22;5557;51.670;7.788;2023-07-30T10:32:59;22.90;1.00
11009;DHT22;5557;51.670;7.788;2023-07-30T10:35:41;23.10;1.00
11009;DHT22;5557;51.670;7.788;2023-07-30T10:38:20;23.30;1.00
11009;DHT22;5557;51.670;7.788;2023-07-30T10:41:06;23.50;1.00
11009;DHT22;5557;51.670;7.788;2023-07-30T10:43:41;23.60;1.00
11009;DHT22;5557;51.670;7.788;2023-07-30T10:46:10;23.50;1.00
11009;DHT22;5557;51.670;7.788;2023-07-30T10:48:40;23.80;1.00
11009;DHT22;5557;51.670;7.788;2023-07-30T10:51:10;24.00;1.00
11009;DHT22;5557;51.670;7.788;2023-07-30T10:53:38;23.80;1.00
11009;DHT22;5557;51.670;7.788;2023-07-30T10:56:09;23.90;1.00
11009;DHT22;5557;51.670;7.788;2023-07-30T10:58:37;23.80;1.00
11009;DHT22;5557;51.670;7.788;2023-07-30T11:01:05;23.60;1.00
11009;DHT22;5557;51.670;7.788;2023-07-30T11:03:33;23.60;1.00
11009;DHT22;5557;51.670;7.788;2023-07-30T11:06:02;24.00;1.00
11009;DHT22;5557;51.670;7.788;2023-07-30T11:08:37;23.60;1.00
11009;DHT22;5557;51.670;7.788;2023-07-30T11:11:06;23.70;1.00
11009;DHT22;5557;51.670;7.788;2023-07-30T11:13:40;23.60;1.00
11009;DHT22;5557;51.670;7.788;2023-07-30T11:16:09;23.50;1.00
11009;DHT22;5557;51.670;7.788;2023-07-30T11:18:37;23.30;1.00
11009;DHT22;5557;51.670;7.788;2023-07-30T11:21:09;23.00;1.00
11009;DHT22;5557;51.670;7.788;2023-07-30T11:23:39;22.80;1.00
11009;DHT22;5557;51.670;7.788;2023-07-30T11:26:18;22.70;1.00
11009;DHT22;5557;51.670;7.788;2023-07-30T11:28:46;22.80;1.00
11009;DHT22;5557;51.670;7.788;2023-07-30T11:31:18;22.50;1.00
11009;DHT22;5557;51.670;7.788;2023-07-30T11:33:49;22.00;1.00
11009;DHT22;5557;51.670;7.788;2023-07-30T11:36:20;21.70;1.00
11009;DHT22;5557;51.670;7.788;2023-07-30T11:39:00;21.50;1.00
11009;DHT22;5557;51.670;7.788;2023-07-30T11:41:28;21.20;1.00
11009;DHT22;5557;51.670;7.788;2023-07-30T11:43:59;21.20;1.00
11009;DHT22;5557;51.670;7.788;2023-07-30T11:46:26;21.20;1.00
11009;DHT22;5557;51.670;7.788;2023-07-30T11:49:13;21.40;1.00
11009;DHT22;5557;51.670;7.788;2023-07-30T11:51:41;21.70;1.00
11009;DHT22;5557;51.670;7.788;2023-07-30T11:54:22;21.70;1.00
11009;DHT22;5557;51.670;7.788;2023-07-30T11:56:55;21.80;1.00
11009;DHT22;5557;51.670;7.788;2023-07-30T11:59:23;21.90;1.00
11009;DHT22;5557;51.670;7.788;2023-07-30T12:01:50;22.50;1.00
11009;DHT22;5557;51.670;7.788;2023-07-30T12:04:18;22.90;1.00
11009;DHT22;5557;51.670;7.788;2023-07-30T12:06:50;23.30;1.00
11009;DHT22;5557;51.670;7.788;2023-07-30T12:09:22;23.30;1.00
11009;DHT22;5557;51.670;7.788;2023-07-30T12:11:57;22.90;1.00
11009;DHT22;5557;51.670;7.788;2023-07-30T12:14:29;22.80;1.00
11009;DHT22;5557;51.670;7.788;2023-07-30T12:17:00;22.90;1.00
11009;DHT22;5557;51.670;7.788;2023-07-30T12:19:27;23.00;1.00
11009;DHT22;5557;51.670;7.788;2023-07-30T12:21:54;22.80;1.00
11009;DHT22;5557;51.670;7.788;2023-07-30T12:24:22;22.60;1.00
11009;DHT22;5557;51.670;7.788;2023-07-30T12:26:49;22.50;1.00
11009;DHT22;5557;51.670;7.788;2023-07-30T12:29:21;22.20;1.00
11009;DHT22;5557;51.670;7.788;2023-07-30T12:31:48;22.00;1.00
11009;DHT22;5557;51.670;7.788;2023-07-30T12:34:20;21.90;1.00
11009;DHT22;5557;51.670;7.788;2023-07-30T12:36:48;21.70;1.00
11009;DHT22;5557;51.670;7.788;2023-07-30T12:39:16;21.50;1.00
11009;DHT22;5557;51.670;7.788;2023-07-30T12:41:43;21.20;1.00
11009;DHT22;5557;51.670;7.788;2023-07-30T12:44:10;21.00;1.00
11009;DHT22;5557;51.670;7.788;2023-07-30T12:46:37;20.90;1.00
11009;DHT22;5557;51.670;7.788;2023-07-30T12:49:04;20.80;1.00
11009;DHT22;5557;51.670;7.788;2023-07-30T12:51:32;20.50;1.00
11009;DHT22;5557;51.670;7.788;2023-07-30T12:54:00;20.40;1.00
11009;DHT22;5557;51.670;7.788;2023-07-30T12:56:27;20.40;1.00
11009;DHT22;5557;51.670;7.788;2023-07-30T12:58:54;20.40;1.00
11009;DHT22;5557;51.670;7.788;2023-07-30T13:01:21;20.40;1.00
11009;DHT22;5557;51.670;7.788;2023-07-30T13:03:50;20.40;1.00
11009;DHT22;5557;51.670;7.788;2023-07-30T13:06:19;20.30;1.00
11009;DHT22;5557;51.670;7.788;2023-07-30T13:08:46;19.70;1.00
11009;DHT22;5557;51.670;7.788;2023-07-30T13:11:13;19.00;1.00
11009;DHT22;5557;51.670;7.788;2023-07-30T13:13:41;18.50;1.00
11009;DHT22;5557;51.670;7.788;2023-07-30T13:16:08;18.40;1.20
11009;DHT22;5557;51.670;7.788;2023-07-30T13:18:35;18.10;1.20
11009;DHT22;5557;51.670;7.788;2023-07-30T13:21:03;18.00;4.90
11009;DHT22;5557;51.670;7.788;2023-07-30T13:23:30;17.90;5.20
11009;DHT22;5557;51.670;7.788;2023-07-30T13:25:59;18.00;6.60
11009;DHT22;5557;51.670;7.788;2023-07-30T13:28:27;18.00;9.90
11009;DHT22;5557;51.670;7.788;2023-07-30T13:30:57;18.10;10.30
11009;DHT22;5557;51.670;7.788;2023-07-30T13:33:28;18.40;9.10
11009;DHT22;5557;51.670;7.788;2023-07-30T13:35:58;18.60;5.60
11009;DHT22;5557;51.670;7.788;2023-07-30T13:38:26;18.70;5.70
11009;DHT22;5557;51.670;7.788;2023-07-30T13:40:54;18.90;5.00
11009;DHT22;5557;51.670;7.788;2023-07-30T13:43:21;19.20;3.30
11009;DHT22;5557;51.670;7.788;2023-07-30T13:45:48;19.50;1.00
11009;DHT22;5557;51.670;7.788;2023-07-30T13:48:17;19.70;1.00
11009;DHT22;5557;51.670;7.788;2023-07-30T13:50:44;19.90;1.00
11009;DHT22;5557;51.670;7.788;2023-07-30T13:53:11;20.10;1.00
11009;DHT22;5557;51.670;7.788;2023-07-30T13:55:39;20.30;1.00
11009;DHT22;5557;51.670;7.788;2023-07-30T13:58:06;20.50;1.00
11009;DHT22;5557;51.670;7.788;2023-07-30T14:00:33;20.60;1.00
11009;DHT22;5557;51.670;7.788;2023-07-30T14:03:02;20.70;1.00
11009;DHT22;5557;51.670;7.788;2023-07-30T14:05:29;20.80;1.00
11009;DHT22;5557;51.670;7.788;2023-07-30T14:07:56;20.70;1.00
11009;DHT22;5557;51.670;7.788;2023-07-30T14:10:24;20.50;1.00
11009;DHT22;5557;51.670;7.788;2023-07-30T14:12:51;20.40;2.80
11009;DHT22;5557;51.670;7.788;2023-07-30T14:15:18;20.30;3.40
11009;DHT22;5557;51.670;7.788;2023-07-30T14:17:46;20.20;1.00
11009;DHT22;5557;51.670;7.788;2023-07-30T14:20:13;20.00;1.20
11009;DHT22;5557;51.670;7.788;2023-07-30T14:22:40;19.90;1.70
11009;DHT22;5557;51.670;7.788;2023-07-30T14:25:07;20.00;1.30
11009;DHT22;5557;51.670;7.788;2023-07-30T14:27:34;20.00;1.00
11009;DHT22;5557;51.670;7.788;2023-07-30T14:30:01;20.10;1.00
11009;DHT22;5557;51.670;7.788;2023-07-30T14:32:29;20.20;1.00
11009;DHT22;5557;51.670;7.788;2023-07-30T14:34:57;20.40;1.00
11009;DHT22;5557;51.670;7.788;2023-07-30T14:37:28;20.70;1.00
11009;DHT22;5557;51.670;7.788;2023-07-30T14:39:56;20.80;1.00
11009;DHT22;5557;51.670;7.788;2023-07-30T14:42:24;20.80;1.00
11009;DHT22;5557;51.670;7.788;2023-07-30T14:44:51;20.90;1.00
11009;DHT22;5557;51.670;7.788;2023-07-30T14:47:18;20.80;1.00
11009;DHT22;5557;51.670;7.788;2023-07-30T14:49:48;20.80;1.00
11009;DHT22;5557;51.670;7.788;2023-07-30T14:52:18;20.80;1.00
11009;DHT22;5557;51.670;7.788;2023-07-30T14:54:45;20.80;1.00
11009;DHT22;5557;51.670;7.788;2023-07-30T14:57:12;20.90;1.00
11009;DHT22;5557;51.670;7.788;2023-07-30T14:59:39;21.10;1.00
11009;DHT22;5557;51.670;7.788;2023-07-30T15:02:07;21.20;1.00
11009;DHT22;5557;51.670;7.788;2023-07-30T15:04:34;21.30;1.00
11009;DHT22;5557;51.670;7.788;2023-07-30T15:07:01;21.40;1.00
11009;DHT22;5557;51.670;7.788;2023-07-30T15:09:29;21.40;1.00
11009;DHT22;5557;51.670;7.788;2023-07-30T15:12:01;21.50;1.00
11009;DHT22;5557;51.670;7.788;2023-07-30T15:14:28;21.60;1.00
11009;DHT22;5557;51.670;7.788;2023-07-30T15:16:56;21.60;1.00
11009;DHT22;5557;51.670;7.788;2023-07-30T15:19:26;21.60;1.00
11009;DHT22;5557;51.670;7.788;2023-07-30T15:21:53;21.50;1.00
11009;DHT22;5557;51.670;7.788;2023-07-30T15:24:20;21.40;1.00
11009;DHT22;5557;51.670;7.788;2023-07-30T15:26:47;21.20;1.00
11009;DHT22;5557;51.670;7.788;2023-07-30T15:29:14;20.90;1.00
11009;DHT22;5557;51.670;7.788;2023-07-30T15:31:42;20.50;1.00
11009;DHT22;5557;51.670;7.788;2023-07-30T15:34:12;19.90;4.70
11009;DHT22;5557;51.670;7.788;2023-07-30T15:36:41;19.20;19.90
11009;DHT22;5557;51.670;7.788;2023-07-30T15:39:09;19.00;33.40
11009;DHT22;5557;51.670;7.788;2023-07-30T15:41:36;19.10;40.70
11009;DHT22;5557;51.670;7.788;2023-07-30T15:44:03;19.20;34.10
11009;DHT22;5557;51.670;7.788;2023-07-30T15:46:30;19.30;33.70
11009;DHT22;5557;51.670;7.788;2023-07-30T15:48:57;19.40;36.60
11009;DHT22;5557;51.670;7.788;2023-07-30T15:51:24;19.40;33.40
11009;DHT22;5557;51.670;7.788;2023-07-30T15:53:54;19.40;28.20
11009;DHT22;5557;51.670;7.788;2023-07-30T15:56:21;19.40;25.70
11009;DHT22;5557;51.670;7.788;2023-07-30T15:58:48;19.30;19.40